Time;durP1;ratioP1;P1;durP2;ratioP2;P2;SDS_P1;SDS_P2;PMS_P1;PMS_P2;Temp;Humidity;BMP_temperature;BMP_pressure;BME280_temperature;BME280_humidity;BME280_pressure;Samples;Min_cycle;Max_cycle;Signal;HPM_P1;HPM_P2
2022/09/22 00:08:24;;;;;;;1999.90;999.90;;;8.80;99.90;;;;;;6673402;88;20229;-80
2022/09/22 00:18:25;;;;;;;1999.90;999.90;;;8.50;99.90;;;;;;6677387;88;20187;-81
2022/09/22 00:28:25;;;;;;;1999.90;999.90;;;8.30;99.90;;;;;;6673054;88;20196;-79
2022/09/22 00:38:26;;;;;;;1999.90;999.90;;;8.30;99.90;;;;;;6678028;88;20204;-80
2022/09/22 00:48:31;;;;;;;1999.90;999.90;;;8.20;99.90;;;;;;6685006;88;20228;-81
2022/09/22 00:58:38;;;;;;;1999.90;999.90;;;8.20;99.90;;;;;;6678942;89;20411;-80
2022/09/22 01:08:39;;;;;;;1999.90;999.90;;;8.10;99.90;;;;;;6687683;88;20246;-79
2022/09/22 01:18:47;;;;;;;1999.90;999.90;;;8.10;99.90;;;;;;6681139;88;20235;-80
2022/09/22 01:29:03;;;;;;;1999.90;999.90;;;7.60;99.90;;;;;;6678539;88;20195;-81
2022/09/22 01:39:14;;;;;;;1999.90;999.90;;;7.70;99.90;;;;;;6692620;88;20243;-79
2022/09/22 01:49:17;;;;;;;1999.90;999.90;;;7.70;99.90;;;;;;6677481;89;20242;-80
2022/09/22 01:59:23;;;;;;;1999.90;999.90;;;7.40;99.90;;;;;;6677842;88;20289;-79
2022/09/22 02:09:28;;;;;;;1999.90;999.90;;;7.50;99.90;;;;;;6672569;88;20188;-80
2022/09/22 02:19:31;;;;;;;1999.90;999.90;;;7.40;99.90;;;;;;6680780;88;20354;-80
2022/09/22 02:29:36;;;;;;;1999.90;999.90;;;7.40;99.90;;;;;;6682125;88;20196;-79
2022/09/22 02:39:51;;;;;;;1999.90;999.90;;;7.40;99.90;;;;;;6678381;89;20196;-80
2022/09/22 02:49:54;;;;;;;1999.90;999.90;;;7.50;99.90;;;;;;6687471;88;20215;-81
2022/09/22 02:59:54;;;;;;;1999.90;999.90;;;7.20;99.90;;;;;;6681294;88;20246;-81
2022/09/22 03:09:55;;;;;;;1999.90;999.90;;;7.20;99.90;;;;;;6684215;88;20266;-80
2022/09/22 03:19:55;;;;;;;1999.90;999.90;;;7.00;99.90;;;;;;6688192;88;20192;-80
2022/09/22 03:29:56;;;;;;;1999.90;999.90;;;7.10;99.90;;;;;;6680481;88;20188;-80
2022/09/22 03:39:57;;;;;;;1999.90;999.90;;;7.00;99.90;;;;;;6674120;89;20302;-79
2022/09/22 03:49:58;;;;;;;1999.90;999.90;;;6.90;99.90;;;;;;6678417;88;20639;-80
2022/09/22 03:59:59;;;;;;;1999.90;999.90;;;6.90;99.90;;;;;;6683680;89;20290;-80
2022/09/22 04:10:00;;;;;;;1999.90;999.90;;;6.90;99.90;;;;;;6687699;88;20336;-79
2022/09/22 04:20:01;;;;;;;1999.90;999.90;;;7.00;99.90;;;;;;6681228;89;20317;-81
2022/09/22 04:30:01;;;;;;;1999.90;999.90;;;6.90;99.90;;;;;;6671904;89;20221;-79
2022/09/22 04:40:03;;;;;;;1999.90;999.90;;;6.60;99.90;;;;;;6676340;89;20211;-80
2022/09/22 04:50:04;;;;;;;1999.90;999.90;;;6.70;99.90;;;;;;6681805;88;20237;-78
2022/09/22 05:00:05;;;;;;;1999.90;999.90;;;6.60;99.90;;;;;;6681312;89;20275;-79
2022/09/22 05:10:05;;;;;;;1999.90;999.90;;;6.50;99.90;;;;;;6686661;89;20224;-78
2022/09/22 05:20:06;;;;;;;1999.90;999.90;;;6.60;99.90;;;;;;6689321;88;20230;-79
2022/09/22 05:30:07;;;;;;;1999.90;999.90;;;6.50;99.90;;;;;;6683907;88;20220;-79
2022/09/22 05:40:09;;;;;;;1999.90;999.90;;;6.50;99.90;;;;;;6679058;89;20233;-78
2022/09/22 05:50:11;;;;;;;1999.90;999.90;;;6.70;99.90;;;;;;6674264;89;20188;-80
2022/09/22 06:00:12;;;;;;;1999.90;999.90;;;6.60;99.90;;;;;;6672093;88;20708;-78
2022/09/22 06:20:16;;;;;;;1999.90;999.90;;;6.90;99.90;;;;;;6799706;86;20275;-78
2022/09/22 06:30:16;;;;;;;1999.90;999.90;;;7.10;99.90;;;;;;6779761;87;20194;-76
2022/09/22 06:40:17;;;;;;;1999.90;999.90;;;7.40;99.90;;;;;;6782781;87;20191;-77
2022/09/22 06:50:17;;;;;;;1999.90;999.90;;;7.70;99.90;;;;;;6779650;87;20196;-77
2022/09/22 07:00:18;;;;;;;1999.90;999.90;;;7.90;99.90;;;;;;6777346;87;20308;-77
2022/09/22 07:10:18;;;;;;;1999.90;999.90;;;8.30;99.90;;;;;;6783008;87;20316;-78
2022/09/22 07:20:20;;;;;;;1999.90;999.90;;;8.80;99.90;;;;;;6784567;87;20193;-77
2022/09/22 07:30:21;;;;;;;1999.90;999.90;;;9.50;99.90;;;;;;6771010;87;20247;-77
2022/09/22 07:40:21;;;;;;;1999.90;999.90;;;10.10;99.90;;;;;;6772447;87;20176;-77
2022/09/22 07:50:22;;;;;;;1999.90;999.90;;;10.80;99.90;;;;;;6770366;87;20258;-77
2022/09/22 08:00:25;;;;;;;1999.90;999.90;;;11.30;99.90;;;;;;6777247;87;20187;-80
2022/09/22 08:10:25;;;;;;;1999.90;999.90;;;11.70;99.90;;;;;;6782335;87;20705;-80
2022/09/22 08:20:27;;;;;;;1999.90;999.90;;;12.40;99.90;;;;;;6768514;88;20188;-82
2022/09/22 08:30:28;;;;;;;1999.90;999.90;;;13.00;99.90;;;;;;6770159;88;20192;-80
2022/09/22 08:40:30;;;;;;;1999.90;999.90;;;13.40;99.90;;;;;;6769798;88;20246;-81
2022/09/22 09:01:34;;;;;;;1999.90;999.90;;;14.90;99.90;;;;;;6753699;88;20215;-81
2022/09/22 09:11:53;;;;;;;1999.90;999.90;;;15.20;99.90;;;;;;6754464;87;20220;-81
2022/09/22 09:22:00;;;;;;;1999.90;999.90;;;16.00;99.90;;;;;;6782998;87;20278;-81
2022/09/22 09:32:09;;;;;;;1999.90;999.90;;;16.60;99.90;;;;;;6765870;88;20173;-81
2022/09/22 09:42:26;;;;;;;1999.90;999.90;;;16.90;99.90;;;;;;6765319;88;20255;-80
2022/09/22 09:52:27;;;;;;;1999.90;999.90;;;17.40;99.90;;;;;;6761154;88;20207;-83
2022/09/22 10:02:37;;;;;;;1999.90;999.90;;;18.00;99.90;;;;;;6764226;88;20646;-81
2022/09/22 10:12:37;;;;;;;1999.90;999.90;;;19.30;99.90;;;;;;6763267;77;20605;-77
2022/09/22 10:22:38;;;;;;;1999.90;999.90;;;19.90;99.90;;;;;;6705998;88;20181;-77
2022/09/22 10:32:39;;;;;;;1999.90;999.90;;;20.10;98.70;;;;;;6715872;88;20576;-78
2022/09/22 10:42:45;;;;;;;1999.90;999.90;;;20.50;97.90;;;;;;6716809;88;20190;-78
2022/09/22 10:53:01;;;;;;;1999.90;999.90;;;20.70;96.80;;;;;;6723723;88;20288;-77
2022/09/22 11:03:01;;;;;;;1999.90;999.90;;;20.30;95.90;;;;;;6718589;88;20809;-78
2022/09/22 11:13:58;;;;;;;1999.90;999.90;;;19.80;95.80;;;;;;6722316;88;20225;-77
2022/09/22 11:24:15;;;;;;;1999.90;999.90;;;20.50;95.20;;;;;;6701444;88;20609;-77
2022/09/22 11:34:37;;;;;;;1999.90;999.90;;;19.50;94.90;;;;;;6725699;88;20262;-77
2022/09/22 11:44:45;;;;;;;1999.90;999.90;;;20.00;95.00;;;;;;6711778;88;20197;-76
2022/09/22 11:55:10;;;;;;;1999.90;999.90;;;20.20;94.90;;;;;;6730556;88;20636;-77
2022/09/22 12:05:40;;;;;;;1999.90;999.90;;;19.80;94.10;;;;;;6714061;88;20666;-77
2022/09/22 12:15:54;;;;;;;1999.90;999.90;;;20.20;94.40;;;;;;6716628;88;20319;-76
2022/09/22 12:25:59;;;;;;;1999.90;999.90;;;20.70;92.50;;;;;;6724676;88;20664;-76
2022/09/22 12:36:01;;;;;;;1999.90;999.90;;;21.00;91.10;;;;;;6714165;88;20303;-77
2022/09/22 12:46:14;;;;;;;1999.90;999.90;;;20.60;90.80;;;;;;6712467;88;20218;-77
2022/09/22 12:56:45;;;;;;;1999.90;999.90;;;21.00;89.60;;;;;;6714702;88;20215;-77
2022/09/22 13:06:45;;;;;;;1999.90;999.90;;;22.20;88.60;;;;;;6727167;88;20475;-78
2022/09/22 13:16:46;;;;;;;1999.90;999.90;;;21.60;89.50;;;;;;6712695;88;20792;-76
2022/09/22 13:26:46;;;;;;;1999.90;999.90;;;21.60;89.00;;;;;;6711460;88;20182;-77
2022/09/22 13:36:48;;;;;;;1999.90;999.90;;;21.50;90.80;;;;;;6713480;88;20618;-76
2022/09/22 13:46:50;;;;;;;1999.90;999.90;;;21.30;90.00;;;;;;6717771;88;20210;-77
2022/09/22 13:56:50;;;;;;;1999.90;999.90;;;20.80;90.10;;;;;;6720416;88;20194;-76
2022/09/22 14:06:56;;;;;;;1999.90;999.90;;;21.00;90.30;;;;;;6716114;88;20177;-77
2022/09/22 14:17:02;;;;;;;1999.90;999.90;;;20.60;90.60;;;;;;6712047;88;21009;-77
2022/09/22 14:27:06;;;;;;;1999.90;999.90;;;20.50;90.60;;;;;;6706975;88;20193;-76
2022/09/22 14:37:26;;;;;;;1999.90;999.90;;;20.70;90.30;;;;;;6715748;88;20262;-77
2022/09/22 14:47:29;;;;;;;1999.90;999.90;;;20.40;90.50;;;;;;6716263;88;20246;-79
2022/09/22 14:57:29;;;;;;;1999.90;999.90;;;21.20;91.00;;;;;;6719086;88;20709;-76
2022/09/22 15:07:33;;;;;;;1999.90;999.90;;;21.60;90.60;;;;;;6707270;88;20194;-77
2022/09/22 15:27:56;;;;;;;1999.90;999.90;;;21.30;91.30;;;;;;6702442;88;20668;-76
2022/09/22 15:37:56;;;;;;;1999.90;999.90;;;20.80;92.70;;;;;;6705571;88;20216;-76
2022/09/22 15:47:57;;;;;;;1999.90;999.90;;;20.90;92.00;;;;;;6716197;88;20820;-76
2022/09/22 15:58:08;;;;;;;1999.90;999.90;;;20.60;92.60;;;;;;6713205;88;20262;-76
2022/09/22 16:08:14;;;;;;;1999.90;999.90;;;20.30;92.50;;;;;;6709650;88;20181;-76
2022/09/22 16:39:20;;;;;;;1999.90;999.90;;;20.00;93.70;;;;;;6758504;88;20228;-82
2022/09/22 16:49:21;;;;;;;1999.90;999.90;;;19.40;94.00;;;;;;6760317;88;20342;-81
2022/09/22 17:10:24;;;;;;;1999.90;999.90;;;18.80;95.10;;;;;;6675773;88;20186;-81
2022/09/22 17:20:24;;;;;;;1999.90;999.90;;;18.20;96.30;;;;;;6669192;89;20586;-80
2022/09/22 17:30:25;;;;;;;1999.90;999.90;;;17.60;97.10;;;;;;6663595;89;20211;-80
2022/09/22 17:40:25;;;;;;;1999.90;999.90;;;17.20;97.70;;;;;;6661290;89;20227;-83
2022/09/22 18:00:46;;;;;;;1999.90;999.90;;;16.50;99.20;;;;;;6662800;88;20715;-79
2022/09/22 18:10:46;;;;;;;1999.90;999.90;;;16.20;99.90;;;;;;6683286;88;20156;-79
2022/09/22 18:20:47;;;;;;;1999.90;999.90;;;15.70;99.90;;;;;;6692573;88;20183;-81
2022/09/22 18:31:14;;;;;;;1999.90;999.90;;;15.40;99.90;;;;;;6682986;88;20212;-80
2022/09/22 18:41:15;;;;;;;1999.90;999.90;;;15.00;99.90;;;;;;6663136;88;20491;-81
2022/09/22 18:51:19;;;;;;;1999.90;999.90;;;14.80;99.90;;;;;;6730711;88;20166;-81
2022/09/22 19:01:21;;;;;;;1999.90;999.90;;;14.40;99.90;;;;;;6713739;88;21433;-80
2022/09/22 19:11:21;;;;;;;1999.90;999.90;;;14.40;99.90;;;;;;6713074;88;20185;-80
2022/09/22 19:21:24;;;;;;;1999.90;999.90;;;14.20;99.90;;;;;;6702970;88;20178;-81
2022/09/22 19:31:24;;;;;;;1999.90;999.90;;;14.10;99.90;;;;;;6711911;88;20304;-81
2022/09/22 19:41:25;;;;;;;1999.90;999.90;;;13.80;99.90;;;;;;6689930;88;20753;-78
2022/09/22 19:51:26;;;;;;;1999.90;999.90;;;13.60;99.90;;;;;;6662416;88;20223;-78
2022/09/22 20:01:31;;;;;;;1999.90;999.90;;;13.50;99.90;;;;;;6648756;88;20188;-79
2022/09/22 20:11:41;;;;;;;1999.90;999.90;;;13.30;99.90;;;;;;6651466;89;20206;-78
2022/09/22 20:21:42;;;;;;;1999.90;999.90;;;13.10;99.90;;;;;;6646446;89;20188;-78
2022/09/22 20:31:43;;;;;;;1999.90;999.90;;;13.10;99.90;;;;;;6647682;89;20323;-79
2022/09/22 20:41:44;;;;;;;1999.90;999.90;;;13.10;99.90;;;;;;6652018;89;20204;-78
2022/09/22 20:51:46;;;;;;;1999.90;999.90;;;12.70;99.90;;;;;;6643703;88;20211;-79
2022/09/22 21:01:46;;;;;;;1999.90;999.90;;;12.50;99.90;;;;;;6645569;89;20349;-79
2022/09/22 21:11:47;;;;;;;1999.90;999.90;;;12.20;99.90;;;;;;6651453;89;20730;-78
2022/09/22 21:21:47;;;;;;;1999.90;999.90;;;12.10;99.90;;;;;;6652114;88;20643;-78
2022/09/22 21:31:48;;;;;;;1999.90;999.90;;;11.90;99.90;;;;;;6650554;88;20938;-79
2022/09/22 21:41:49;;;;;;;1999.90;999.90;;;11.60;99.90;;;;;;6641890;89;20696;-79
2022/09/22 21:51:49;;;;;;;1999.90;999.90;;;11.50;99.90;;;;;;6645344;89;20246;-79
2022/09/22 22:01:50;;;;;;;1999.90;999.90;;;11.40;99.90;;;;;;6645613;89;20202;-78
2022/09/22 22:11:54;;;;;;;1999.90;999.90;;;11.20;99.90;;;;;;6642863;88;20326;-79
2022/09/22 22:21:54;;;;;;;1999.90;999.90;;;11.10;99.90;;;;;;6655020;88;20197;-78
2022/09/22 22:31:55;;;;;;;1999.90;999.90;;;11.10;99.90;;;;;;6656414;88;20309;-78
2022/09/22 22:41:55;;;;;;;1999.90;999.90;;;11.00;99.90;;;;;;6651345;89;20527;-78
2022/09/22 22:51:56;;;;;;;1999.90;999.90;;;10.80;99.90;;;;;;6634172;89;20221;-78
2022/09/22 23:01:56;;;;;;;1999.90;999.90;;;10.70;99.90;;;;;;6633365;89;20205;-78
2022/09/22 23:11:57;;;;;;;1999.90;999.90;;;10.50;99.90;;;;;;6636076;89;20309;-78
2022/09/22 23:21:57;;;;;;;1999.90;999.90;;;10.40;99.90;;;;;;6637568;89;20196;-78
2022/09/22 23:31:58;;;;;;;1999.90;999.90;;;10.30;99.90;;;;;;6667916;88;20277;-77
2022/09/22 23:41:58;;;;;;;1999.90;999.90;;;10.20;99.90;;;;;;6654481;89;20251;-78
2022/09/22 23:51:59;;;;;;;1999.90;999.90;;;10.00;99.90;;;;;;6646923;89;20346;-77
